Time;durP1;ratioP1;P1;durP2;ratioP2;P2;SDS_P1;SDS_P2;PMS_P1;PMS_P2;Temp;Humidity;BMP_temperature;BMP_pressure;BME280_temperature;BME280_humidity;BME280_pressure;Samples;Min_cycle;Max_cycle;Signal;HPM_P1;HPM_P2
2021/05/24 00:00:08;;;;;;;2.07;1.50;;;;;;;9.42;74.33;100400.44;5083124;28;20252;-75
2021/05/24 00:02:34;;;;;;;1.40;1.23;;;;;;;9.43;74.39;100399.53;5083302;28;20200;-75
2021/05/24 00:05:01;;;;;;;1.37;1.27;;;;;;;9.42;74.50;100393.47;5084076;28;20237;-74
2021/05/24 00:07:27;;;;;;;2.70;1.60;;;;;;;9.42;74.76;100396.09;5084793;28;20241;-75
2021/05/24 00:09:53;;;;;;;3.63;1.77;;;;;;;9.40;74.91;100399.59;5085053;28;20592;-75
2021/05/24 00:12:25;;;;;;;2.30;1.30;;;;;;;9.35;73.98;100394.44;5084937;28;20294;-75
2021/05/24 00:14:51;;;;;;;1.37;1.27;;;;;;;9.39;74.44;100400.47;5084748;28;20545;-76
2021/05/24 00:17:17;;;;;;;3.47;1.40;;;;;;;9.34;74.51;100404.00;5084681;28;20237;-75
2021/05/24 00:19:43;;;;;;;2.60;1.50;;;;;;;9.31;74.41;100397.97;5084233;28;20625;-75
2021/05/24 00:22:10;;;;;;;3.33;1.80;;;;;;;9.28;75.28;100398.03;5084775;28;20209;-74
2021/05/24 00:24:35;;;;;;;2.97;1.47;;;;;;;9.28;75.29;100395.44;5084497;28;20212;-75
2021/05/24 00:27:01;;;;;;;1.60;1.50;;;;;;;9.26;74.92;100390.25;5084924;28;20847;-74
2021/05/24 00:29:27;;;;;;;2.27;1.40;;;;;;;9.24;74.45;100384.19;5083936;28;20232;-75
2021/05/24 00:31:53;;;;;;;1.87;1.50;;;;;;;9.24;75.42;100385.94;5084916;28;20760;-75
2021/05/24 00:34:19;;;;;;;2.57;1.53;;;;;;;9.21;75.35;100383.38;5083802;28;20210;-74
2021/05/24 00:36:45;;;;;;;3.20;1.20;;;;;;;9.16;75.57;100383.44;5084711;28;20242;-75
2021/05/24 00:39:12;;;;;;;4.50;1.40;;;;;;;9.17;75.72;100385.16;5083980;28;20228;-75
2021/05/24 00:41:40;;;;;;;1.97;1.40;;;;;;;9.14;76.33;100383.47;5084159;28;20265;-74
2021/05/24 00:44:09;;;;;;;2.03;1.60;;;;;;;9.13;76.04;100373.91;5083910;28;20207;-75
2021/05/24 00:46:36;;;;;;;1.90;1.47;;;;;;;9.10;75.85;100379.19;5084758;28;20255;-76
2021/05/24 00:49:02;;;;;;;2.83;1.30;;;;;;;9.15;74.61;100373.91;5083888;28;20260;-75
2021/05/24 00:51:28;;;;;;;5.07;1.60;;;;;;;9.15;75.29;100372.13;5084193;28;20211;-74
2021/05/24 00:53:55;;;;;;;1.77;1.30;;;;;;;9.12;73.88;100367.00;5083340;28;20234;-75
2021/05/24 00:56:23;;;;;;;2.53;1.60;;;;;;;9.08;74.58;100361.88;5084058;28;20235;-75
2021/05/24 00:58:49;;;;;;;1.70;1.27;;;;;;;9.13;74.82;100360.88;5084036;28;20259;-74
2021/05/24 01:01:16;;;;;;;3.30;1.70;;;;;;;9.12;74.49;100356.56;5084029;28;20208;-75
2021/05/24 01:03:42;;;;;;;1.83;1.50;;;;;;;9.13;75.00;100355.69;5083721;28;20206;-75
2021/05/24 01:06:08;;;;;;;1.40;1.30;;;;;;;9.13;74.92;100360.88;5083659;28;20207;-74
2021/05/24 01:08:34;;;;;;;2.17;1.17;;;;;;;9.15;75.21;100359.13;5083690;28;20266;-75
2021/05/24 01:11:00;;;;;;;2.50;1.43;;;;;;;9.15;76.22;100353.91;5082350;28;20206;-75
2021/05/24 01:13:27;;;;;;;2.13;1.47;;;;;;;9.12;75.18;100351.38;5083750;28;21236;-74
2021/05/24 01:15:53;;;;;;;2.00;1.60;;;;;;;9.12;75.40;100347.91;5084376;28;20577;-75
2021/05/24 01:18:19;;;;;;;2.60;1.40;;;;;;;9.11;76.19;100348.78;5083527;28;20200;-74
2021/05/24 01:20:45;;;;;;;1.27;1.20;;;;;;;9.09;76.16;100346.19;5083722;28;20298;-74
2021/05/24 01:23:15;;;;;;;4.80;1.50;;;;;;;9.05;75.50;100344.50;5083248;28;20673;-75
2021/05/24 01:25:44;;;;;;;1.80;1.37;;;;;;;8.98;76.17;100337.69;5084277;28;20203;-75
2021/05/24 01:28:12;;;;;;;2.20;1.23;;;;;;;8.99;74.90;100341.16;5084333;28;20212;-75
2021/05/24 01:30:38;;;;;;;5.37;1.67;;;;;;;9.01;74.80;100336.78;5083459;28;20279;-75
2021/05/24 01:33:05;;;;;;;1.70;1.10;;;;;;;9.02;75.28;100325.47;5083583;28;21304;-75
2021/05/24 01:35:31;;;;;;;2.83;1.40;;;;;;;8.97;75.04;100324.69;5083212;28;20253;-74
2021/05/24 01:37:58;;;;;;;1.37;1.10;;;;;;;8.94;76.01;100323.00;5083256;28;20205;-74
2021/05/24 01:40:25;;;;;;;2.30;1.30;;;;;;;8.94;75.94;100321.25;5083604;28;20477;-74
2021/05/24 01:42:54;;;;;;;1.90;1.07;;;;;;;8.94;75.27;100313.44;5083221;28;20246;-75
2021/05/24 01:45:20;;;;;;;1.47;1.10;;;;;;;8.92;75.96;100309.16;5083941;28;20300;-75
2021/05/24 01:47:46;;;;;;;1.47;1.10;;;;;;;8.93;75.57;100313.47;5083259;28;20198;-74
2021/05/24 01:50:13;;;;;;;1.67;1.10;;;;;;;8.98;73.78;100310.78;5082173;28;20303;-73
2021/05/24 01:52:40;;;;;;;1.33;1.20;;;;;;;8.96;74.49;100313.44;5083230;28;20246;-74
2021/05/24 01:55:07;;;;;;;2.23;1.10;;;;;;;8.90;75.14;100311.75;5083017;28;20247;-75
2021/05/24 01:57:33;;;;;;;1.13;1.00;;;;;;;8.92;73.24;100320.41;5083295;28;20207;-75
2021/05/24 01:59:59;;;;;;;1.77;1.10;;;;;;;8.98;72.90;100311.66;5083050;28;20220;-75
2021/05/24 02:02:25;;;;;;;0.80;0.80;;;;;;;8.99;73.09;100310.75;5083073;28;20262;-75
2021/05/24 02:04:51;;;;;;;3.37;1.30;;;;;;;9.04;73.50;100305.47;5083111;28;20201;-74
2021/05/24 02:07:17;;;;;;;2.00;1.10;;;;;;;9.08;73.79;100310.63;5083352;28;20240;-75
2021/05/24 02:09:44;;;;;;;2.43;1.03;;;;;;;9.09;73.13;100306.28;5083153;28;20276;-74
2021/05/24 02:12:10;;;;;;;1.30;1.20;;;;;;;9.06;72.60;100308.94;5082987;28;20202;-75
2021/05/24 02:14:37;;;;;;;2.07;1.17;;;;;;;9.02;72.89;100308.13;5083189;28;20215;-75
2021/05/24 02:17:03;;;;;;;2.47;1.10;;;;;;;9.04;73.71;100300.28;5082473;28;20251;-74
2021/05/24 02:19:29;;;;;;;1.10;1.10;;;;;;;9.07;72.65;100311.50;5082539;28;20618;-75
2021/05/24 02:21:54;;;;;;;1.30;1.17;;;;;;;9.10;73.24;100310.63;5083043;28;20589;-76
2021/05/24 02:24:20;;;;;;;1.57;1.00;;;;;;;9.11;72.80;100307.13;5082143;28;20483;-74
2021/05/24 02:26:46;;;;;;;0.90;0.90;;;;;;;9.11;72.11;100310.56;5083876;28;20225;-75
2021/05/24 02:29:13;;;;;;;1.73;1.30;;;;;;;9.13;71.10;100308.81;5082541;28;20235;-74
2021/05/24 02:31:40;;;;;;;2.60;0.97;;;;;;;9.17;72.16;100298.34;5082971;28;20203;-75
2021/05/24 02:34:07;;;;;;;1.63;1.10;;;;;;;9.22;72.08;100313.03;5082439;28;20214;-75
2021/05/24 02:36:34;;;;;;;1.30;1.10;;;;;;;9.26;72.45;100309.50;5082628;28;20559;-75
2021/05/24 02:39:01;;;;;;;1.20;1.10;;;;;;;9.26;72.52;100313.84;5082765;28;20265;-75
2021/05/24 02:41:27;;;;;;;0.70;0.70;;;;;;;9.19;72.85;100309.59;5082747;28;20285;-75
2021/05/24 02:43:52;;;;;;;1.87;1.10;;;;;;;9.17;72.57;100314.84;5082463;28;20201;-75
2021/05/24 02:46:18;;;;;;;3.10;1.00;;;;;;;9.17;73.28;100309.63;5082603;28;20297;-74
2021/05/24 02:48:45;;;;;;;1.83;0.80;;;;;;;9.18;72.79;100308.75;5082460;28;20263;-74
2021/05/24 02:51:11;;;;;;;1.70;1.40;;;;;;;9.23;72.61;100313.88;5082809;28;20579;-74
2021/05/24 02:53:37;;;;;;;1.17;0.97;;;;;;;9.18;73.33;100303.56;5082147;28;20201;-75
2021/05/24 02:56:03;;;;;;;2.33;0.90;;;;;;;9.13;72.77;100303.59;5082832;28;20205;-75
2021/05/24 02:58:29;;;;;;;2.13;1.10;;;;;;;9.14;72.90;100297.53;5082595;28;20601;-75
2021/05/24 03:00:54;;;;;;;2.13;1.10;;;;;;;9.15;73.21;100307.03;5082605;28;20775;-75
2021/05/24 03:03:22;;;;;;;0.80;0.80;;;;;;;9.10;73.90;100305.41;5085882;28;20202;-74
2021/05/24 03:05:49;;;;;;;1.67;1.00;;;;;;;9.12;73.38;100303.66;5086359;28;20208;-74
2021/05/24 03:08:15;;;;;;;1.33;1.13;;;;;;;9.11;73.08;100300.16;5086605;28;20234;-74
2021/05/24 03:10:41;;;;;;;2.03;1.00;;;;;;;9.09;72.66;100303.69;5086272;28;20271;-73
2021/05/24 03:13:08;;;;;;;1.57;1.10;;;;;;;9.08;72.66;100302.81;5086093;28;20495;-74
2021/05/24 03:15:35;;;;;;;1.27;1.10;;;;;;;9.10;73.04;100305.41;5087154;28;20207;-74
2021/05/24 03:18:01;;;;;;;1.77;1.10;;;;;;;9.03;72.55;100295.97;5086227;28;20228;-74
2021/05/24 03:20:27;;;;;;;1.93;1.20;;;;;;;8.89;72.17;100297.00;5085777;28;20938;-72
2021/05/24 03:22:53;;;;;;;3.33;1.30;;;;;;;8.84;73.50;100295.34;5086161;28;20203;-74
2021/05/24 03:25:20;;;;;;;1.47;1.30;;;;;;;8.90;73.25;100287.47;5085679;28;20229;-75
2021/05/24 03:27:46;;;;;;;0.97;0.93;;;;;;;8.89;73.75;100294.41;5086752;28;20203;-73
2021/05/24 03:30:14;;;;;;;1.20;1.10;;;;;;;8.84;74.44;100287.53;5086260;28;20282;-74
2021/05/24 03:32:40;;;;;;;3.10;1.70;;;;;;;8.79;74.11;100284.16;5086266;28;20377;-75
2021/05/24 03:35:08;;;;;;;1.37;1.27;;;;;;;8.80;74.38;100286.75;5085391;28;20720;-73
2021/05/24 03:37:34;;;;;;;1.40;1.20;;;;;;;8.79;74.28;100273.75;5086238;28;20242;-73
2021/05/24 03:40:01;;;;;;;2.17;1.20;;;;;;;8.77;73.98;100271.16;5086397;28;20293;-74
2021/05/24 03:42:27;;;;;;;2.17;1.40;;;;;;;8.75;74.00;100265.13;5085504;28;20695;-73
2021/05/24 03:44:53;;;;;;;1.67;1.20;;;;;;;8.75;74.90;100265.13;5085924;28;20206;-74
2021/05/24 03:47:19;;;;;;;1.30;1.13;;;;;;;8.76;75.05;100274.66;5085994;28;20574;-74
2021/05/24 03:49:45;;;;;;;1.37;1.27;;;;;;;8.78;74.63;100266.81;5085214;28;20976;-73
2021/05/24 03:52:12;;;;;;;2.43;1.10;;;;;;;8.85;74.92;100261.50;5086532;28;20203;-74
2021/05/24 03:54:38;;;;;;;1.80;1.10;;;;;;;8.89;75.85;100260.56;5085127;28;20203;-75
2021/05/24 03:57:05;;;;;;;1.50;0.93;;;;;;;8.93;74.75;100256.19;5085773;28;20247;-74
2021/05/24 03:59:31;;;;;;;3.07;1.07;;;;;;;8.93;75.05;100262.25;5085807;28;20321;-75
2021/05/24 04:01:57;;;;;;;2.03;1.10;;;;;;;8.94;75.70;100261.38;5085689;28;20241;-75
2021/05/24 04:04:23;;;;;;;3.20;1.27;;;;;;;8.97;75.11;100257.84;5085904;28;20556;-74
2021/05/24 04:06:53;;;;;;;1.40;0.73;;;;;;;9.08;74.83;100265.53;5085568;28;20208;-74
2021/05/24 04:09:19;;;;;;;1.73;1.20;;;;;;;9.10;74.52;100262.00;5085466;28;20729;-73
2021/05/24 04:11:45;;;;;;;1.57;1.10;;;;;;;9.18;74.33;100269.69;5085647;28;20240;-73
2021/05/24 04:14:12;;;;;;;2.67;0.90;;;;;;;9.22;74.09;100262.69;5084125;28;20219;-74
2021/05/24 04:16:38;;;;;;;2.03;1.00;;;;;;;9.31;74.02;100270.34;5085681;28;20231;-74
2021/05/24 04:19:07;;;;;;;2.10;1.57;;;;;;;9.36;74.08;100271.13;5084474;28;20290;-73
2021/05/24 04:21:33;;;;;;;1.43;0.90;;;;;;;9.42;73.82;100270.19;5084957;28;20698;-73
2021/05/24 04:23:59;;;;;;;0.97;0.97;;;;;;;9.50;73.72;100269.16;5084729;28;20196;-74
2021/05/24 04:26:25;;;;;;;0.87;0.87;;;;;;;9.52;73.21;100254.34;5084966;28;20286;-74
2021/05/24 04:28:51;;;;;;;7.77;1.17;;;;;;;9.61;72.95;100258.53;5085276;28;20230;-74
2021/05/24 04:31:17;;;;;;;1.43;0.80;;;;;;;9.67;73.55;100254.94;5084906;28;20295;-74
2021/05/24 04:33:43;;;;;;;1.57;0.90;;;;;;;9.71;73.29;100265.31;5084886;28;20204;-73
2021/05/24 04:36:09;;;;;;;1.83;1.00;;;;;;;9.80;72.43;100260.81;5085078;28;20693;-74
2021/05/24 04:38:35;;;;;;;1.00;0.90;;;;;;;9.83;72.31;100261.63;5085038;28;20576;-73
2021/05/24 04:41:01;;;;;;;1.77;0.97;;;;;;;9.90;72.17;100264.97;5085016;28;20312;-73
2021/05/24 04:43:29;;;;;;;1.23;0.90;;;;;;;9.94;72.69;100251.84;5084468;28;20203;-74
2021/05/24 04:45:55;;;;;;;2.23;1.20;;;;;;;10.00;71.81;100247.41;5085267;28;20205;-74
2021/05/24 04:48:21;;;;;;;1.00;0.90;;;;;;;10.06;71.86;100263.78;5084322;28;20594;-73
2021/05/24 04:50:47;;;;;;;2.13;1.63;;;;;;;10.12;72.33;100253.22;5084738;28;20300;-74
2021/05/24 04:53:13;;;;;;;1.27;1.00;;;;;;;10.17;71.07;100258.34;5084718;28;20210;-74
2021/05/24 04:55:39;;;;;;;1.20;0.80;;;;;;;10.24;71.01;100248.66;5084200;28;20213;-74
2021/05/24 04:58:06;;;;;;;5.17;0.80;;;;;;;10.31;70.85;100245.06;5084594;28;20295;-74
2021/05/24 05:00:32;;;;;;;3.87;0.80;;;;;;;10.38;71.20;100245.78;5083833;28;20692;-73
2021/05/24 05:02:58;;;;;;;1.47;1.10;;;;;;;10.42;71.10;100247.44;5084863;28;20208;-74
2021/05/24 05:05:24;;;;;;;1.13;1.03;;;;;;;10.48;71.68;100247.28;5084634;28;20211;-74
2021/05/24 05:07:50;;;;;;;0.90;0.90;;;;;;;10.51;70.49;100250.72;5084378;28;20242;-73
2021/05/24 05:10:16;;;;;;;1.47;1.13;;;;;;;10.60;70.22;100254.84;5084942;28;20229;-74
2021/05/24 05:12:42;;;;;;;2.13;0.90;;;;;;;10.66;70.76;100244.31;5083419;28;20235;-73
2021/05/24 05:15:09;;;;;;;0.87;0.70;;;;;;;10.73;70.70;100235.41;5084633;28;20219;-74
2021/05/24 05:17:34;;;;;;;2.00;0.90;;;;;;;10.82;70.31;100249.16;5084689;28;20249;-74
2021/05/24 05:20:00;;;;;;;2.20;0.90;;;;;;;10.89;70.74;100240.28;5083791;28;20228;-73
2021/05/24 05:22:27;;;;;;;0.93;0.80;;;;;;;10.99;70.03;100241.78;5084824;28;20197;-74
2021/05/24 05:24:53;;;;;;;0.80;0.70;;;;;;;11.10;69.84;100247.63;5083482;28;20207;-74
2021/05/24 05:27:19;;;;;;;0.83;0.80;;;;;;;11.11;69.70;100231.03;5084090;28;20281;-75
2021/05/24 05:29:45;;;;;;;2.10;0.70;;;;;;;11.20;69.19;100227.34;5084090;28;20771;-74
2021/05/24 05:32:11;;;;;;;0.67;0.67;;;;;;;11.26;69.00;100228.97;5084130;28;20701;-74
2021/05/24 05:34:36;;;;;;;0.87;0.70;;;;;;;11.32;68.47;100228.81;5084243;28;20205;-75
2021/05/24 05:37:03;;;;;;;0.83;0.60;;;;;;;11.40;68.17;100224.25;5083503;28;20539;-74
2021/05/24 05:39:30;;;;;;;1.57;1.20;;;;;;;11.47;68.34;100217.09;5083405;28;20233;-73
2021/05/24 05:41:56;;;;;;;1.93;0.70;;;;;;;11.55;68.71;100216.88;5083889;28;20256;-74
2021/05/24 05:44:22;;;;;;;2.20;0.90;;;;;;;11.59;68.63;100213.28;5083483;28;20673;-74
2021/05/24 05:46:47;;;;;;;3.90;0.83;;;;;;;11.65;67.83;100219.19;5083579;28;20217;-74
2021/05/24 05:49:13;;;;;;;0.97;0.77;;;;;;;11.75;68.77;100213.72;5083557;28;20654;-75
2021/05/24 05:51:39;;;;;;;1.17;0.70;;;;;;;11.80;67.43;100214.47;5084205;28;20285;-73
2021/05/24 05:54:05;;;;;;;1.30;0.60;;;;;;;11.89;66.91;100222.06;5082874;28;20218;-74
2021/05/24 05:56:32;;;;;;;2.27;0.80;;;;;;;11.94;66.51;100221.97;5083344;28;20824;-74
2021/05/24 05:58:58;;;;;;;0.70;0.70;;;;;;;11.97;65.45;100209.66;5083009;28;20256;-73
2021/05/24 06:01:24;;;;;;;2.13;0.80;;;;;;;12.04;65.13;100210.34;5083781;28;20243;-74
2021/05/24 06:03:50;;;;;;;1.73;0.70;;;;;;;12.14;64.81;100205.69;5083555;28;20205;-74
2021/05/24 06:06:16;;;;;;;0.70;0.67;;;;;;;12.18;65.49;100205.56;5083398;28;20206;-73
2021/05/24 06:08:42;;;;;;;1.23;0.70;;;;;;;12.24;65.29;100202.75;5083425;28;20778;-74
2021/05/24 06:11:08;;;;;;;1.47;0.80;;;;;;;12.19;64.09;100204.66;5083060;28;20209;-73
2021/05/24 06:13:34;;;;;;;1.43;0.67;;;;;;;12.27;65.32;100197.44;5082844;28;20217;-74
2021/05/24 06:16:00;;;;;;;1.70;1.00;;;;;;;12.30;64.84;100201.72;5083816;28;21284;-74
2021/05/24 06:18:26;;;;;;;1.63;0.73;;;;;;;12.38;64.58;100198.88;5082922;28;20207;-73
2021/05/24 06:20:52;;;;;;;3.10;0.60;;;;;;;12.41;65.45;100193.56;5084262;28;20228;-74
2021/05/24 06:23:18;;;;;;;1.27;0.70;;;;;;;12.47;65.49;100203.84;5082145;28;20205;-74
2021/05/24 06:25:45;;;;;;;1.23;0.60;;;;;;;12.47;64.23;100206.47;5083242;28;20263;-74
2021/05/24 06:28:11;;;;;;;1.90;0.80;;;;;;;12.52;64.62;100200.16;5083659;28;20218;-75
2021/05/24 06:30:38;;;;;;;1.37;0.70;;;;;;;12.62;62.49;100202.50;5082854;28;20250;-73
2021/05/24 06:33:04;;;;;;;1.33;0.70;;;;;;;12.70;63.55;100198.75;5082940;28;20226;-73
2021/05/24 06:35:31;;;;;;;1.40;0.70;;;;;;;12.77;63.52;100194.16;5083014;28;20683;-74
2021/05/24 06:37:57;;;;;;;0.97;0.70;;;;;;;12.84;61.62;100200.06;5087942;28;20237;-74
2021/05/24 06:40:23;;;;;;;1.00;0.70;;;;;;;12.87;63.08;100203.44;5089962;28;20233;-75
2021/05/24 06:42:49;;;;;;;0.77;0.67;;;;;;;12.94;63.81;100198.84;5089471;28;20675;-74
2021/05/24 06:45:18;;;;;;;2.40;0.67;;;;;;;13.05;63.17;100195.88;5090358;28;20238;-73
2021/05/24 06:47:45;;;;;;;2.73;0.60;;;;;;;13.12;61.20;100194.75;5088977;28;20821;-74
2021/05/24 06:50:12;;;;;;;1.33;0.77;;;;;;;13.19;60.08;100195.44;5089309;28;20225;-75
2021/05/24 06:52:38;;;;;;;1.70;0.83;;;;;;;13.25;61.61;100190.81;5089700;28;20298;-73
2021/05/24 06:55:06;;;;;;;1.63;1.00;;;;;;;13.28;61.22;100198.59;5089109;28;20201;-74
2021/05/24 06:57:32;;;;;;;1.07;0.53;;;;;;;13.35;60.64;100190.56;5089093;28;20689;-73
2021/05/24 06:59:58;;;;;;;0.80;0.53;;;;;;;13.38;63.05;100193.94;5089327;28;20282;-75
2021/05/24 07:02:24;;;;;;;1.90;0.57;;;;;;;13.39;60.60;100195.63;5089192;28;20470;-74
2021/05/24 07:04:51;;;;;;;0.90;0.70;;;;;;;13.39;61.00;100186.91;5089950;28;20283;-74
2021/05/24 07:07:17;;;;;;;1.27;0.70;;;;;;;13.43;61.14;100189.38;5088984;28;20658;-75
2021/05/24 07:09:43;;;;;;;1.50;0.60;;;;;;;13.51;62.19;100189.94;5089096;28;20307;-74
2021/05/24 07:12:09;;;;;;;0.93;0.77;;;;;;;13.62;61.80;100191.38;5089004;28;20687;-74
2021/05/24 07:14:35;;;;;;;1.40;0.63;;;;;;;13.70;61.82;100186.69;5088909;28;20207;-74
2021/05/24 07:17:01;;;;;;;0.70;0.60;;;;;;;13.78;58.97;100179.41;5089194;28;20686;-74
2021/05/24 07:19:27;;;;;;;0.40;0.40;;;;;;;13.85;61.00;100180.88;5088607;28;20234;-74
2021/05/24 07:21:56;;;;;;;1.77;0.70;;;;;;;13.95;60.45;100172.66;5089094;28;20216;-75
2021/05/24 07:24:21;;;;;;;1.03;0.73;;;;;;;13.99;57.43;100172.47;5088343;28;20652;-76
2021/05/24 07:26:49;;;;;;;1.73;0.50;;;;;;;14.04;58.23;100175.81;5089497;28;20260;-76
2021/05/24 07:29:15;;;;;;;0.83;0.60;;;;;;;14.10;57.96;100172.94;5088567;28;20232;-76
2021/05/24 07:31:41;;;;;;;0.90;0.60;;;;;;;14.13;57.61;100168.50;5088940;28;20207;-74
2021/05/24 07:34:07;;;;;;;1.83;0.70;;;;;;;14.23;58.36;100168.09;5088853;28;20202;-76
2021/05/24 07:36:33;;;;;;;1.03;0.60;;;;;;;14.32;57.57;100166.88;5089080;28;20207;-75
2021/05/24 07:38:59;;;;;;;1.10;0.70;;;;;;;14.37;56.65;100161.44;5089546;28;20302;-75
2021/05/24 07:41:25;;;;;;;0.97;0.50;;;;;;;14.42;56.71;100159.50;5089046;28;20237;-75
2021/05/24 07:43:51;;;;;;;1.27;0.70;;;;;;;14.50;57.21;100158.28;5088640;28;20544;-74
2021/05/24 07:46:17;;;;;;;1.03;0.43;;;;;;;14.55;56.50;100154.59;5089339;28;20242;-75
2021/05/24 07:48:43;;;;;;;1.00;0.70;;;;;;;14.66;58.42;100152.44;5085837;28;20637;-74
2021/05/24 07:51:09;;;;;;;0.57;0.50;;;;;;;14.76;55.62;100142.41;5086305;28;20213;-75
2021/05/24 07:53:35;;;;;;;0.60;0.60;;;;;;;14.82;54.80;100136.91;5086455;28;20217;-75
2021/05/24 07:56:02;;;;;;;1.10;0.57;;;;;;;14.86;55.05;100135.84;5085393;28;20299;-73
2021/05/24 07:58:30;;;;;;;0.60;0.60;;;;;;;14.98;54.78;100130.09;5085445;28;20235;-76
2021/05/24 08:00:56;;;;;;;2.03;0.60;;;;;;;14.99;55.24;100126.53;5085861;28;20251;-76
2021/05/24 08:03:22;;;;;;;1.20;0.70;;;;;;;15.08;57.42;100133.19;5085373;28;20681;-75
2021/05/24 08:05:47;;;;;;;1.93;0.57;;;;;;;15.23;54.39;100129.06;5085750;28;20463;-75
2021/05/24 08:08:13;;;;;;;0.87;0.50;;;;;;;15.27;52.24;100125.38;5085652;28;20218;-75
2021/05/24 08:10:39;;;;;;;0.97;0.50;;;;;;;15.34;53.29;100128.56;5085239;28;20243;-73
2021/05/24 08:13:06;;;;;;;2.53;0.60;;;;;;;15.37;52.83;100116.16;5085243;28;20304;-74
2021/05/24 08:15:33;;;;;;;1.50;0.67;;;;;;;15.45;51.96;100119.28;5086054;28;20212;-75
2021/05/24 08:18:01;;;;;;;1.63;0.47;;;;;;;15.52;51.85;100106.75;5085253;28;20215;-74
2021/05/24 08:20:27;;;;;;;0.70;0.50;;;;;;;15.56;52.98;100110.94;5084084;28;20712;-75
2021/05/24 08:22:53;;;;;;;1.60;0.60;;;;;;;15.62;52.60;100105.41;5085225;28;20210;-75
2021/05/24 08:25:19;;;;;;;0.80;0.60;;;;;;;15.67;51.09;100108.66;5084169;28;20236;-75
2021/05/24 08:27:45;;;;;;;1.30;0.60;;;;;;;15.72;50.49;100102.31;5085526;28;20206;-75
2021/05/24 08:30:13;;;;;;;2.47;0.60;;;;;;;15.74;50.42;100109.28;5085497;28;20738;-76
2021/05/24 08:32:39;;;;;;;2.17;0.43;;;;;;;15.80;50.41;100103.72;5085185;28;20211;-75
2021/05/24 08:35:07;;;;;;;0.87;0.43;;;;;;;15.86;50.96;100092.91;5085269;28;20203;-74
2021/05/24 08:37:33;;;;;;;1.40;0.50;;;;;;;15.94;50.00;100097.81;5085034;28;20235;-75
2021/05/24 08:39:59;;;;;;;1.53;0.67;;;;;;;16.01;49.62;100098.38;5084917;28;20297;-75
2021/05/24 08:42:29;;;;;;;0.50;0.37;;;;;;;16.12;50.71;100095.25;5085191;28;20631;-76
2021/05/24 08:44:56;;;;;;;1.63;0.77;;;;;;;16.17;49.65;100094.09;5084740;28;20657;-75
2021/05/24 08:47:24;;;;;;;1.30;0.43;;;;;;;16.23;47.98;100083.28;5085508;28;20257;-75
2021/05/24 08:49:50;;;;;;;0.70;0.60;;;;;;;16.29;51.73;100087.38;5084534;28;20714;-75
2021/05/24 08:52:16;;;;;;;1.20;0.60;;;;;;;16.32;48.23;100081.97;5084104;28;20236;-74
2021/05/24 08:54:42;;;;;;;0.47;0.47;;;;;;;16.36;48.24;100072.16;5084725;28;20222;-75
2021/05/24 08:57:08;;;;;;;1.23;0.60;;;;;;;16.34;48.24;100066.09;5084620;28;20236;-75
2021/05/24 08:59:34;;;;;;;1.27;0.50;;;;;;;16.39;49.45;100058.81;5084999;28;20243;-75
2021/05/24 09:02:00;;;;;;;1.50;0.60;;;;;;;16.44;50.43;100062.09;5084459;28;20212;-74
2021/05/24 09:04:40;;;;;;;0.67;0.40;;;;;;;16.55;48.60;100054.53;5084740;28;20685;-76
2021/05/24 09:07:07;;;;;;;0.77;0.40;;;;;;;16.63;50.49;100044.44;5084824;28;20234;-74
2021/05/24 09:09:32;;;;;;;1.77;0.50;;;;;;;16.71;47.58;100054.59;5084660;28;20247;-73
2021/05/24 09:11:59;;;;;;;0.63;0.40;;;;;;;16.81;47.49;100049.72;5084045;28;20221;-76
2021/05/24 09:14:25;;;;;;;1.63;0.50;;;;;;;16.82;47.87;100051.44;5084406;28;20223;-76
2021/05/24 09:16:55;;;;;;;1.97;0.50;;;;;;;16.85;46.65;100046.88;5084272;28;20217;-76
2021/05/24 09:19:23;;;;;;;0.53;0.40;;;;;;;16.96;44.12;100054.22;5084527;28;20224;-74
2021/05/24 09:21:53;;;;;;;2.90;0.50;;;;;;;17.01;44.76;100048.72;5084543;28;20247;-73
2021/05/24 09:24:24;;;;;;;1.63;0.40;;;;;;;17.05;45.70;100042.34;5083950;28;20205;-74
2021/05/24 09:26:51;;;;;;;1.17;0.50;;;;;;;17.11;47.41;100046.47;5084528;28;20216;-73
2021/05/24 09:29:22;;;;;;;0.60;0.60;;;;;;;17.18;43.80;100053.94;5084043;28;20329;-73
2021/05/24 09:31:49;;;;;;;1.10;0.60;;;;;;;17.21;45.58;100039.75;5084526;28;20207;-74
2021/05/24 09:34:21;;;;;;;0.70;0.50;;;;;;;17.26;43.85;100037.72;5083755;28;20201;-76
2021/05/24 09:37:00;;;;;;;1.30;0.50;;;;;;;17.34;46.66;100035.50;5083955;28;20707;-76
2021/05/24 09:39:30;;;;;;;1.20;0.50;;;;;;;17.44;44.85;100033.22;5083678;28;20228;-75
2021/05/24 09:41:59;;;;;;;0.47;0.47;;;;;;;17.50;44.59;100029.41;5084258;28;20291;-76
2021/05/24 09:44:27;;;;;;;3.70;0.47;;;;;;;17.62;47.46;100026.09;5083567;28;20674;-76
2021/05/24 09:46:53;;;;;;;0.80;0.50;;;;;;;17.58;44.90;100017.53;5084342;28;20208;-75
2021/05/24 09:49:23;;;;;;;0.77;0.40;;;;;;;17.65;45.59;100010.09;5083678;28;20225;-76
2021/05/24 09:51:51;;;;;;;1.53;0.50;;;;;;;17.67;46.58;100010.88;5083954;28;20246;-76
2021/05/24 09:54:18;;;;;;;1.20;0.53;;;;;;;17.60;44.66;100006.84;5082041;28;20207;-76
2021/05/24 09:56:47;;;;;;;1.23;0.60;;;;;;;17.66;46.49;100007.38;5083567;28;20598;-76
2021/05/24 09:59:16;;;;;;;0.50;0.50;;;;;;;17.57;43.84;100001.75;5083365;28;20266;-75
2021/05/24 10:01:45;;;;;;;1.40;0.60;;;;;;;17.60;45.78;99994.53;5083533;28;20590;-75
2021/05/24 10:04:13;;;;;;;0.97;0.50;;;;;;;17.56;46.05;99990.38;5082999;28;20663;-75
2021/05/24 10:06:39;;;;;;;1.23;0.50;;;;;;;17.59;47.51;99987.53;5083816;28;20345;-76
2021/05/24 10:09:07;;;;;;;2.03;0.70;;;;;;;17.61;45.86;99974.25;5083925;28;20290;-76
2021/05/24 10:11:34;;;;;;;0.87;0.60;;;;;;;17.70;46.47;99968.47;5081845;28;20502;-76
2021/05/24 10:14:00;;;;;;;0.23;0.23;;;;;;;17.69;46.93;99974.69;5082456;28;20249;-76
2021/05/24 10:16:31;;;;;;;0.60;0.40;;;;;;;17.77;46.14;99968.97;5083525;28;20204;-77
2021/05/24 10:18:57;;;;;;;2.13;0.83;;;;;;;17.70;43.31;99955.28;5083099;28;20236;-76
2021/05/24 10:21:23;;;;;;;0.30;0.30;;;;;;;17.71;43.35;99962.25;5083718;28;20224;-76
2021/05/24 10:23:49;;;;;;;0.60;0.50;;;;;;;17.81;44.63;99958.16;5082028;28;20240;-76
2021/05/24 10:26:18;;;;;;;1.13;0.60;;;;;;;18.06;43.67;99951.50;5083009;28;20204;-76
2021/05/24 10:28:47;;;;;;;1.33;0.43;;;;;;;18.33;42.99;99945.53;5082153;28;20288;-76
2021/05/24 10:31:17;;;;;;;1.67;0.70;;;;;;;18.66;40.68;99940.03;5083124;28;20200;-76
2021/05/24 10:33:45;;;;;;;1.00;0.50;;;;;;;18.90;39.74;99927.13;5083388;28;20871;-77
2021/05/24 10:36:21;;;;;;;3.30;0.50;;;;;;;19.15;42.90;99938.84;5083220;28;20205;-77
2021/05/24 10:39:03;;;;;;;0.67;0.50;;;;;;;19.33;40.07;99932.38;5083338;28;20842;-75
2021/05/24 10:41:43;;;;;;;0.87;0.50;;;;;;;19.32;39.24;99925.38;5082863;28;20236;-76
2021/05/24 10:44:11;;;;;;;1.80;0.43;;;;;;;19.38;40.94;99921.50;5082788;28;20206;-76
2021/05/24 10:46:37;;;;;;;0.97;0.40;;;;;;;19.41;39.78;99926.59;5083426;28;20215;-76
2021/05/24 10:49:06;;;;;;;1.23;0.70;;;;;;;19.43;40.86;99912.31;5082857;28;20318;-76
2021/05/24 10:51:52;;;;;;;2.87;0.40;;;;;;;19.41;41.57;99908.06;5083100;28;20264;-76
2021/05/24 10:54:41;;;;;;;0.47;0.37;;;;;;;19.57;42.83;99892.91;5081404;28;20207;-76
2021/05/24 10:57:20;;;;;;;1.03;0.33;;;;;;;19.67;36.63;99895.78;5080525;28;20665;-76
2021/05/24 10:59:49;;;;;;;1.50;0.30;;;;;;;19.65;36.76;99890.59;5082888;28;20227;-76
2021/05/24 11:02:17;;;;;;;1.70;0.50;;;;;;;19.66;35.82;99872.91;5083228;28;20208;-76
2021/05/24 11:04:48;;;;;;;0.87;0.37;;;;;;;19.96;37.61;99890.38;5082794;28;20214;-76
2021/05/24 11:07:22;;;;;;;1.10;0.40;;;;;;;19.95;36.40;99881.59;5083077;28;20632;-76
2021/05/24 11:09:48;;;;;;;0.77;0.50;;;;;;;20.03;36.33;99865.19;5082879;28;20230;-75
2021/05/24 11:12:14;;;;;;;0.40;0.37;;;;;;;20.02;35.38;99869.66;5082983;28;20206;-75
2021/05/24 11:15:06;;;;;;;1.67;0.60;;;;;;;20.14;36.76;99870.63;5082712;28;20207;-76
2021/05/24 11:18:05;;;;;;;0.77;0.47;;;;;;;20.24;35.89;99868.19;5082788;28;20231;-76
2021/05/24 11:20:34;;;;;;;0.83;0.30;;;;;;;20.20;35.63;99864.06;5082191;28;20433;-77
2021/05/24 11:23:10;;;;;;;2.20;0.40;;;;;;;20.33;35.22;99862.25;5083152;28;20207;-75
2021/05/24 11:25:54;;;;;;;1.87;0.70;;;;;;;20.35;34.44;99855.03;5085984;28;20291;-75
2021/05/24 11:28:21;;;;;;;0.50;0.40;;;;;;;20.79;36.90;99858.22;5086096;28;20210;-74